Porto — A8UN3 — position and weather

sailwx.info

Track history (hours):
 
Tides and Currents Weather Stations Pressure Air Temp Water Temp Dewpoint Dewpoint Depression Visibility Wind Speed Wind Dir Waves Ship Positions

Porto

Last reported at 2017-Nov-13 01:59 UTC. Time now 2017-Nov-23 03:51 UTC.
Position N 24°23' W 088°32'.
Warning: this ship's position is 10 days out of date.

Type: Cargo ship. MMSI: 63691916.

Date/timePositionNaut miles runAvg speedWind from/ knotsBaromVisibWave heightAir tempDewpointWater temp
2017-Nov-13 01:59N 24°23' W 088°32'44910.5
2017-Nov-11 07:06N 29°22' W 094°48'113.9
2017-Nov-11 07:00N 29°23' W 094°49'611.9
2017-Nov-11 06:30N 29°29' W 094°51'611.6
2017-Nov-11 06:00N 29°33' W 094°55'712.2
2017-Nov-11 05:28N 29°39' W 094°58'2 4.3
2017-Nov-11 04:58N 29°41' W 095°00'0 0.0
2017-Nov-11 04:22N 29°41' W 095°00'0 0.0
2017-Nov-11 03:58N 29°41' W 095°00'0 0.0
2017-Nov-11 03:28N 29°41' W 095°00'0 0.0
2017-Nov-11 02:58N 29°41' W 095°00'0 0.0
2017-Nov-11 02:28N 29°41' W 095°00'0 0.0
2017-Nov-11 01:58N 29°41' W 095°00'0 0.0
2017-Nov-11 01:28N 29°41' W 095°00'0 0.0
2017-Nov-11 00:58N 29°41' W 095°00'0 0.0
2017-Nov-11 00:28N 29°41' W 095°00'0 0.0
2017-Nov-10 23:58N 29°41' W 095°00'0 0.0
2017-Nov-10 23:25N 29°41' W 095°00'0 0.0
2017-Nov-10 22:55N 29°41' W 095°00'0 0.0
2017-Nov-10 22:28N 29°41' W 095°00'0 0.0
2017-Nov-10 21:58N 29°41' W 095°00'0 0.0
2017-Nov-10 21:25N 29°41' W 095°00'0 0.0
2017-Nov-10 20:55N 29°41' W 095°00'0 0.0
2017-Nov-10 20:28N 29°41' W 095°00'0 0.0
2017-Nov-10 19:58N 29°41' W 095°00'0 0.0
2017-Nov-10 19:28N 29°41' W 095°00'0 0.0
2017-Nov-10 18:58N 29°41' W 095°00'0 0.0
2017-Nov-10 18:28N 29°41' W 095°00'0 0.0
2017-Nov-10 17:58N 29°41' W 095°00'0 0.0
2017-Nov-10 17:28N 29°41' W 095°00'0 0.0
2017-Nov-10 16:58N 29°41' W 095°00'0 0.0
2017-Nov-10 16:28N 29°41' W 095°00'0 0.0
2017-Nov-10 15:58N 29°41' W 095°00'0 0.0
2017-Nov-10 15:28N 29°41' W 095°00'0 0.0
2017-Nov-10 14:58N 29°41' W 095°00'0 0.0
2017-Nov-10 14:28N 29°41' W 095°00'0 0.0
2017-Nov-10 13:58N 29°41' W 095°00'0 0.0
2017-Nov-10 13:28N 29°41' W 095°00'0 0.0
2017-Nov-10 12:58N 29°41' W 095°00'0 0.0
2017-Nov-10 12:28N 29°41' W 095°00'0 0.0
2017-Nov-10 11:55N 29°41' W 095°00'0 0.0
2017-Nov-10 11:28N 29°41' W 095°00'0 0.0
2017-Nov-10 10:57N 29°41' W 095°00'1 1.3
2017-Nov-10 10:31N 29°41' W 094°59'4 8.2
2017-Nov-10 10:01N 29°37' W 094°57'714.5
2017-Nov-10 09:30N 29°31' W 094°53'815.6
2017-Nov-10 09:00N 29°24' W 094°49'254 4.9
2017-Nov-08 05:21N 29°41' W 089°58'  
2017-Nov-05 03:42N 27°36' W 082°59'311.3
2017-Nov-05 03:27N 27°36' W 082°56'612.3
2017-Nov-05 02:59N 27°36' W 082°49'714.5
2017-Nov-05 02:30N 27°37' W 082°41'714.3
2017-Nov-05 02:00N 27°41' W 082°35'713.7
2017-Nov-05 01:30N 27°47' W 082°31'612.3
2017-Nov-05 01:00N 27°51' W 082°27'3 6.2
2017-Nov-05 00:30N 27°54' W 082°26'0 0.2
2017-Nov-04 23:59N 27°55' W 082°26'0 0.0
2017-Nov-04 23:26N 27°55' W 082°26'0 0.0
2017-Nov-04 22:59N 27°55' W 082°26'0 0.0
2017-Nov-04 22:29N 27°55' W 082°26'0 0.0
2017-Nov-04 21:59N 27°55' W 082°26'0 0.0
2017-Nov-04 21:29N 27°55' W 082°26'0 0.0
2017-Nov-04 20:59N 27°55' W 082°26'0 0.0
2017-Nov-04 20:29N 27°55' W 082°26'0 0.0
2017-Nov-04 19:59N 27°55' W 082°26'0 0.0
2017-Nov-04 19:29N 27°55' W 082°26'0 0.0
2017-Nov-04 18:59N 27°55' W 082°26'0 0.0
2017-Nov-04 18:29N 27°55' W 082°26'0 0.0
2017-Nov-04 17:59N 27°55' W 082°26'0 0.0
2017-Nov-04 17:29N 27°55' W 082°26'0 0.0
2017-Nov-04 16:59N 27°55' W 082°26'0 0.0
2017-Nov-04 16:29N 27°55' W 082°26'0 0.0
2017-Nov-04 15:59N 27°55' W 082°26'0 0.0
2017-Nov-04 15:29N 27°55' W 082°26'0 0.0
2017-Nov-04 14:59N 27°55' W 082°26'0 0.0
2017-Nov-04 14:29N 27°55' W 082°26'0 0.0
2017-Nov-04 13:59N 27°55' W 082°26'0 0.0
2017-Nov-04 13:29N 27°55' W 082°26'0 0.0
2017-Nov-04 12:59N 27°55' W 082°26'0 0.0
2017-Nov-04 12:29N 27°55' W 082°26'0 0.0
2017-Nov-04 11:59N 27°55' W 082°26'0 0.0
2017-Nov-04 11:29N 27°55' W 082°26'0 0.0
2017-Nov-04 10:59N 27°55' W 082°26'0 0.0
2017-Nov-04 10:29N 27°55' W 082°26'0 0.0
2017-Nov-04 09:59N 27°55' W 082°26'1 1.3
2017-Nov-04 09:30N 27°54' W 082°26'5 9.5
2017-Nov-04 09:00N 27°49' W 082°27'713.4
2017-Nov-04 08:30N 27°44' W 082°32'814.4
2017-Nov-04 07:58N 27°38' W 082°37'714.8
2017-Nov-04 07:30N 27°36' W 082°45'  
Track history (hours):
 
Tides and Currents Weather Stations Pressure Air Temp Water Temp Dewpoint Dewpoint Depression Visibility Wind Speed Wind Dir Waves Ship Positions

Porto

Last reported at 2017-Nov-13 01:59 UTC. Time now 2017-Nov-23 03:51 UTC.
Position N 24°23' W 088°32'.
Warning: this ship's position is 10 days out of date.

Type: Cargo ship. MMSI: 63691916.

Date/timePositionNaut miles runAvg speedWind from/ knotsBaromVisibWave heightAir tempDewpointWater temp
2017-Nov-13 01:59N 24°23' W 088°32'44910.5
2017-Nov-11 07:06N 29°22' W 094°48'113.9
2017-Nov-11 07:00N 29°23' W 094°49'611.9
2017-Nov-11 06:30N 29°29' W 094°51'611.6
2017-Nov-11 06:00N 29°33' W 094°55'712.2
2017-Nov-11 05:28N 29°39' W 094°58'2 4.3
2017-Nov-11 04:58N 29°41' W 095°00'0 0.0
2017-Nov-11 04:22N 29°41' W 095°00'0 0.0
2017-Nov-11 03:58N 29°41' W 095°00'0 0.0
2017-Nov-11 03:28N 29°41' W 095°00'0 0.0
2017-Nov-11 02:58N 29°41' W 095°00'0 0.0
2017-Nov-11 02:28N 29°41' W 095°00'0 0.0
2017-Nov-11 01:58N 29°41' W 095°00'0 0.0
2017-Nov-11 01:28N 29°41' W 095°00'0 0.0
2017-Nov-11 00:58N 29°41' W 095°00'0 0.0
2017-Nov-11 00:28N 29°41' W 095°00'0 0.0
2017-Nov-10 23:58N 29°41' W 095°00'0 0.0
2017-Nov-10 23:25N 29°41' W 095°00'0 0.0
2017-Nov-10 22:55N 29°41' W 095°00'0 0.0
2017-Nov-10 22:28N 29°41' W 095°00'0 0.0
2017-Nov-10 21:58N 29°41' W 095°00'0 0.0
2017-Nov-10 21:25N 29°41' W 095°00'0 0.0
2017-Nov-10 20:55N 29°41' W 095°00'0 0.0
2017-Nov-10 20:28N 29°41' W 095°00'0 0.0
2017-Nov-10 19:58N 29°41' W 095°00'0 0.0
2017-Nov-10 19:28N 29°41' W 095°00'0 0.0
2017-Nov-10 18:58N 29°41' W 095°00'0 0.0
2017-Nov-10 18:28N 29°41' W 095°00'0 0.0
2017-Nov-10 17:58N 29°41' W 095°00'0 0.0
2017-Nov-10 17:28N 29°41' W 095°00'0 0.0
2017-Nov-10 16:58N 29°41' W 095°00'0 0.0
2017-Nov-10 16:28N 29°41' W 095°00'0 0.0
2017-Nov-10 15:58N 29°41' W 095°00'0 0.0
2017-Nov-10 15:28N 29°41' W 095°00'0 0.0
2017-Nov-10 14:58N 29°41' W 095°00'0 0.0
2017-Nov-10 14:28N 29°41' W 095°00'0 0.0
2017-Nov-10 13:58N 29°41' W 095°00'0 0.0
2017-Nov-10 13:28N 29°41' W 095°00'0 0.0
2017-Nov-10 12:58N 29°41' W 095°00'0 0.0
2017-Nov-10 12:28N 29°41' W 095°00'0 0.0
2017-Nov-10 11:55N 29°41' W 095°00'0 0.0
2017-Nov-10 11:28N 29°41' W 095°00'0 0.0
2017-Nov-10 10:57N 29°41' W 095°00'1 1.3
2017-Nov-10 10:31N 29°41' W 094°59'4 8.2
2017-Nov-10 10:01N 29°37' W 094°57'714.5
2017-Nov-10 09:30N 29°31' W 094°53'815.6
2017-Nov-10 09:00N 29°24' W 094°49'254 4.9
2017-Nov-08 05:21N 29°41' W 089°58'  
2017-Nov-05 03:42N 27°36' W 082°59'311.3
2017-Nov-05 03:27N 27°36' W 082°56'612.3
2017-Nov-05 02:59N 27°36' W 082°49'714.5
2017-Nov-05 02:30N 27°37' W 082°41'714.3
2017-Nov-05 02:00N 27°41' W 082°35'713.7
2017-Nov-05 01:30N 27°47' W 082°31'612.3
2017-Nov-05 01:00N 27°51' W 082°27'3 6.2
2017-Nov-05 00:30N 27°54' W 082°26'0 0.2
2017-Nov-04 23:59N 27°55' W 082°26'0 0.0
2017-Nov-04 23:26N 27°55' W 082°26'0 0.0
2017-Nov-04 22:59N 27°55' W 082°26'0 0.0
2017-Nov-04 22:29N 27°55' W 082°26'0 0.0
2017-Nov-04 21:59N 27°55' W 082°26'0 0.0
2017-Nov-04 21:29N 27°55' W 082°26'0 0.0
2017-Nov-04 20:59N 27°55' W 082°26'0 0.0
2017-Nov-04 20:29N 27°55' W 082°26'0 0.0
2017-Nov-04 19:59N 27°55' W 082°26'0 0.0
2017-Nov-04 19:29N 27°55' W 082°26'0 0.0
2017-Nov-04 18:59N 27°55' W 082°26'0 0.0
2017-Nov-04 18:29N 27°55' W 082°26'0 0.0
2017-Nov-04 17:59N 27°55' W 082°26'0 0.0
2017-Nov-04 17:29N 27°55' W 082°26'0 0.0
2017-Nov-04 16:59N 27°55' W 082°26'0 0.0
2017-Nov-04 16:29N 27°55' W 082°26'0 0.0
2017-Nov-04 15:59N 27°55' W 082°26'0 0.0
2017-Nov-04 15:29N 27°55' W 082°26'0 0.0
2017-Nov-04 14:59N 27°55' W 082°26'0 0.0
2017-Nov-04 14:29N 27°55' W 082°26'0 0.0
2017-Nov-04 13:59N 27°55' W 082°26'0 0.0
2017-Nov-04 13:29N 27°55' W 082°26'0 0.0
2017-Nov-04 12:59N 27°55' W 082°26'0 0.0
2017-Nov-04 12:29N 27°55' W 082°26'0 0.0
2017-Nov-04 11:59N 27°55' W 082°26'0 0.0
2017-Nov-04 11:29N 27°55' W 082°26'0 0.0
2017-Nov-04 10:59N 27°55' W 082°26'0 0.0
2017-Nov-04 10:29N 27°55' W 082°26'0 0.0
2017-Nov-04 09:59N 27°55' W 082°26'1 1.3
2017-Nov-04 09:30N 27°54' W 082°26'5 9.5
2017-Nov-04 09:00N 27°49' W 082°27'713.4
2017-Nov-04 08:30N 27°44' W 082°32'814.4
2017-Nov-04 07:58N 27°38' W 082°37'714.8
2017-Nov-04 07:30N 27°36' W 082°45'  

Dump ship's entire track history